sensor_id;sensor_type;location;lat;lon;timestamp;P1;durP1;ratioP1;P2;durP2;ratioP2
68196;SDS011;55019;49.382;11.358;2023-03-12T00:00:39;6.20;;;2.88;;
68196;SDS011;55019;49.382;11.358;2023-03-12T00:03:07;5.82;;;2.17;;
68196;SDS011;55019;49.382;11.358;2023-03-12T00:05:32;5.90;;;2.08;;
68196;SDS011;55019;49.382;11.358;2023-03-12T00:10:27;4.97;;;2.22;;
68196;SDS011;55019;49.382;11.358;2023-03-12T00:12:53;7.30;;;2.50;;
68196;SDS011;55019;49.382;11.358;2023-03-12T00:15:19;3.85;;;2.28;;
68196;SDS011;55019;49.382;11.358;2023-03-12T00:17:45;3.70;;;2.05;;
68196;SDS011;55019;49.382;11.358;2023-03-12T00:20:11;3.95;;;2.13;;
68196;SDS011;55019;49.382;11.358;2023-03-12T00:22:37;3.28;;;2.10;;
68196;SDS011;55019;49.382;11.358;2023-03-12T00:25:04;4.93;;;2.42;;
68196;SDS011;55019;49.382;11.358;2023-03-12T00:27:31;5.32;;;2.90;;
68196;SDS011;55019;49.382;11.358;2023-03-12T00:29:57;4.65;;;2.33;;
68196;SDS011;55019;49.382;11.358;2023-03-12T00:32:23;5.80;;;2.70;;
68196;SDS011;55019;49.382;11.358;2023-03-12T00:34:50;6.80;;;2.97;;
68196;SDS011;55019;49.382;11.358;2023-03-12T00:37:16;8.30;;;3.50;;
68196;SDS011;55019;49.382;11.358;2023-03-12T00:39:42;5.90;;;2.92;;
68196;SDS011;55019;49.382;11.358;2023-03-12T00:42:08;5.90;;;2.33;;
68196;SDS011;55019;49.382;11.358;2023-03-12T00:44:34;4.25;;;2.45;;
68196;SDS011;55019;49.382;11.358;2023-03-12T00:46:59;5.10;;;2.50;;
68196;SDS011;55019;49.382;11.358;2023-03-12T00:49:25;3.60;;;2.47;;
68196;SDS011;55019;49.382;11.358;2023-03-12T00:51:51;4.45;;;2.42;;
68196;SDS011;55019;49.382;11.358;2023-03-12T00:54:18;7.05;;;3.28;;
68196;SDS011;55019;49.382;11.358;2023-03-12T00:56:44;7.03;;;3.33;;
68196;SDS011;55019;49.382;11.358;2023-03-12T00:59:12;10.18;;;2.90;;
68196;SDS011;55019;49.382;11.358;2023-03-12T01:01:38;8.35;;;3.35;;
68196;SDS011;55019;49.382;11.358;2023-03-12T01:04:04;6.88;;;3.47;;
68196;SDS011;55019;49.382;11.358;2023-03-12T01:06:30;6.50;;;4.10;;
68196;SDS011;55019;49.382;11.358;2023-03-12T01:08:56;6.90;;;3.33;;
68196;SDS011;55019;49.382;11.358;2023-03-12T01:11:23;7.25;;;2.83;;
68196;SDS011;55019;49.382;11.358;2023-03-12T01:13:48;4.00;;;2.53;;
68196;SDS011;55019;49.382;11.358;2023-03-12T01:16:14;4.53;;;2.40;;
68196;SDS011;55019;49.382;11.358;2023-03-12T01:18:40;3.90;;;1.92;;
68196;SDS011;55019;49.382;11.358;2023-03-12T01:21:06;5.75;;;2.00;;
68196;SDS011;55019;49.382;11.358;2023-03-12T01:23:32;3.10;;;1.77;;
68196;SDS011;55019;49.382;11.358;2023-03-12T01:25:58;3.60;;;1.83;;
68196;SDS011;55019;49.382;11.358;2023-03-12T01:28:24;4.00;;;1.90;;
68196;SDS011;55019;49.382;11.358;2023-03-12T01:30:50;2.58;;;1.70;;
68196;SDS011;55019;49.382;11.358;2023-03-12T01:33:16;2.83;;;1.65;;
68196;SDS011;55019;49.382;11.358;2023-03-12T01:35:42;3.33;;;1.65;;
68196;SDS011;55019;49.382;11.358;2023-03-12T01:38:11;4.40;;;1.83;;
68196;SDS011;55019;49.382;11.358;2023-03-12T01:40:39;3.03;;;1.80;;
68196;SDS011;55019;49.382;11.358;2023-03-12T01:43:22;2.25;;;1.33;;
68196;SDS011;55019;49.382;11.358;2023-03-12T01:48:41;5.70;;;1.90;;
68196;SDS011;55019;49.382;11.358;2023-03-12T01:51:15;4.40;;;1.55;;
68196;SDS011;55019;49.382;11.358;2023-03-12T01:53:44;4.32;;;1.90;;
68196;SDS011;55019;49.382;11.358;2023-03-12T01:56:14;3.38;;;1.80;;
68196;SDS011;55019;49.382;11.358;2023-03-12T01:58:46;2.80;;;1.45;;
68196;SDS011;55019;49.382;11.358;2023-03-12T02:01:15;4.57;;;1.73;;
68196;SDS011;55019;49.382;11.358;2023-03-12T02:03:43;2.92;;;2.10;;
68196;SDS011;55019;49.382;11.358;2023-03-12T02:06:12;3.80;;;2.10;;
68196;SDS011;55019;49.382;11.358;2023-03-12T02:08:44;2.80;;;1.83;;
68196;SDS011;55019;49.382;11.358;2023-03-12T02:11:14;3.25;;;1.92;;
68196;SDS011;55019;49.382;11.358;2023-03-12T02:13:40;3.03;;;1.83;;
68196;SDS011;55019;49.382;11.358;2023-03-12T02:16:06;3.30;;;2.30;;
68196;SDS011;55019;49.382;11.358;2023-03-12T02:18:33;2.10;;;1.80;;
68196;SDS011;55019;49.382;11.358;2023-03-12T02:26:05;2.65;;;1.65;;
68196;SDS011;55019;49.382;11.358;2023-03-12T02:31:07;1.98;;;1.75;;
68196;SDS011;55019;49.382;11.358;2023-03-12T02:33:33;3.13;;;1.73;;
68196;SDS011;55019;49.382;11.358;2023-03-12T02:35:59;3.45;;;2.42;;
68196;SDS011;55019;49.382;11.358;2023-03-12T02:41:13;2.25;;;1.70;;
68196;SDS011;55019;49.382;11.358;2023-03-12T02:46:41;5.38;;;1.42;;
68196;SDS011;55019;49.382;11.358;2023-03-12T02:49:09;2.42;;;1.73;;
68196;SDS011;55019;49.382;11.358;2023-03-12T02:54:04;3.22;;;2.00;;
68196;SDS011;55019;49.382;11.358;2023-03-12T02:56:30;1.75;;;1.63;;
68196;SDS011;55019;49.382;11.358;2023-03-12T02:58:57;2.58;;;1.90;;
68196;SDS011;55019;49.382;11.358;2023-03-12T03:01:24;4.35;;;2.20;;
68196;SDS011;55019;49.382;11.358;2023-03-12T03:03:50;3.45;;;2.40;;
68196;SDS011;55019;49.382;11.358;2023-03-12T03:06:16;4.18;;;2.38;;
68196;SDS011;55019;49.382;11.358;2023-03-12T03:08:42;4.47;;;2.15;;
68196;SDS011;55019;49.382;11.358;2023-03-12T03:11:08;5.00;;;2.80;;
68196;SDS011;55019;49.382;11.358;2023-03-12T03:13:35;5.43;;;2.83;;
68196;SDS011;55019;49.382;11.358;2023-03-12T03:16:01;2.72;;;2.47;;
68196;SDS011;55019;49.382;11.358;2023-03-12T03:18:28;4.35;;;2.83;;
68196;SDS011;55019;49.382;11.358;2023-03-12T03:20:58;5.35;;;2.75;;
68196;SDS011;55019;49.382;11.358;2023-03-12T03:23:29;5.97;;;3.22;;
68196;SDS011;55019;49.382;11.358;2023-03-12T03:25:55;3.92;;;2.55;;
68196;SDS011;55019;49.382;11.358;2023-03-12T03:28:22;4.53;;;2.90;;
68196;SDS011;55019;49.382;11.358;2023-03-12T03:30:51;3.85;;;2.33;;
68196;SDS011;55019;49.382;11.358;2023-03-12T03:33:18;3.38;;;2.45;;
68196;SDS011;55019;49.382;11.358;2023-03-12T03:35:43;3.55;;;1.77;;
68196;SDS011;55019;49.382;11.358;2023-03-12T03:38:09;5.50;;;2.90;;
68196;SDS011;55019;49.382;11.358;2023-03-12T03:40:35;4.90;;;2.45;;
68196;SDS011;55019;49.382;11.358;2023-03-12T03:43:01;4.38;;;2.50;;
68196;SDS011;55019;49.382;11.358;2023-03-12T03:45:27;4.28;;;2.65;;
68196;SDS011;55019;49.382;11.358;2023-03-12T03:47:53;2.60;;;1.98;;
68196;SDS011;55019;49.382;11.358;2023-03-12T03:50:19;4.13;;;2.20;;
68196;SDS011;55019;49.382;11.358;2023-03-12T03:52:45;5.28;;;2.63;;
68196;SDS011;55019;49.382;11.358;2023-03-12T03:55:11;4.55;;;2.13;;
68196;SDS011;55019;49.382;11.358;2023-03-12T03:57:38;6.85;;;2.25;;
68196;SDS011;55019;49.382;11.358;2023-03-12T04:00:05;4.18;;;2.25;;
68196;SDS011;55019;49.382;11.358;2023-03-12T04:02:39;5.28;;;2.70;;
68196;SDS011;55019;49.382;11.358;2023-03-12T04:05:06;3.33;;;2.15;;
68196;SDS011;55019;49.382;11.358;2023-03-12T04:07:32;3.10;;;2.35;;
68196;SDS011;55019;49.382;11.358;2023-03-12T04:09:58;4.65;;;3.00;;
68196;SDS011;55019;49.382;11.358;2023-03-12T04:12:25;7.13;;;2.78;;
68196;SDS011;55019;49.382;11.358;2023-03-12T04:14:52;6.57;;;2.70;;
68196;SDS011;55019;49.382;11.358;2023-03-12T04:17:18;4.35;;;2.97;;
68196;SDS011;55019;49.382;11.358;2023-03-12T04:19:44;4.93;;;3.22;;
68196;SDS011;55019;49.382;11.358;2023-03-12T04:22:10;6.22;;;3.38;;
68196;SDS011;55019;49.382;11.358;2023-03-12T04:24:36;5.78;;;3.45;;
68196;SDS011;55019;49.382;11.358;2023-03-12T04:27:02;6.03;;;3.80;;
68196;SDS011;55019;49.382;11.358;2023-03-12T04:29:28;5.82;;;3.22;;
68196;SDS011;55019;49.382;11.358;2023-03-12T04:31:54;4.28;;;2.63;;
68196;SDS011;55019;49.382;11.358;2023-03-12T04:34:20;6.43;;;3.10;;
68196;SDS011;55019;49.382;11.358;2023-03-12T04:36:48;4.47;;;2.70;;
68196;SDS011;55019;49.382;11.358;2023-03-12T04:39:18;4.30;;;2.85;;
68196;SDS011;55019;49.382;11.358;2023-03-12T04:41:45;4.00;;;2.38;;
68196;SDS011;55019;49.382;11.358;2023-03-12T04:44:13;6.95;;;3.38;;
68196;SDS011;55019;49.382;11.358;2023-03-12T04:46:40;6.47;;;2.90;;
68196;SDS011;55019;49.382;11.358;2023-03-12T04:49:07;2.90;;;2.17;;
68196;SDS011;55019;49.382;11.358;2023-03-12T04:51:35;4.53;;;3.20;;
68196;SDS011;55019;49.382;11.358;2023-03-12T04:54:02;4.70;;;2.80;;
68196;SDS011;55019;49.382;11.358;2023-03-12T04:56:28;4.10;;;2.45;;
68196;SDS011;55019;49.382;11.358;2023-03-12T04:58:54;4.10;;;2.47;;
68196;SDS011;55019;49.382;11.358;2023-03-12T05:01:27;4.13;;;2.85;;
68196;SDS011;55019;49.382;11.358;2023-03-12T05:03:55;4.47;;;2.58;;
68196;SDS011;55019;49.382;11.358;2023-03-12T05:06:22;5.72;;;2.60;;
68196;SDS011;55019;49.382;11.358;2023-03-12T05:08:49;6.85;;;3.22;;
68196;SDS011;55019;49.382;11.358;2023-03-12T05:11:16;5.18;;;2.72;;
68196;SDS011;55019;49.382;11.358;2023-03-12T05:13:43;7.13;;;3.22;;
68196;SDS011;55019;49.382;11.358;2023-03-12T05:16:09;3.58;;;2.72;;
68196;SDS011;55019;49.382;11.358;2023-03-12T05:18:36;4.55;;;2.63;;
68196;SDS011;55019;49.382;11.358;2023-03-12T05:21:09;5.75;;;2.80;;
68196;SDS011;55019;49.382;11.358;2023-03-12T05:23:37;5.82;;;2.53;;
68196;SDS011;55019;49.382;11.358;2023-03-12T05:26:13;3.75;;;2.67;;
68196;SDS011;55019;49.382;11.358;2023-03-12T05:28:41;4.28;;;2.90;;
68196;SDS011;55019;49.382;11.358;2023-03-12T05:31:07;3.13;;;2.35;;
68196;SDS011;55019;49.382;11.358;2023-03-12T05:33:35;4.95;;;2.63;;
68196;SDS011;55019;49.382;11.358;2023-03-12T05:36:01;4.60;;;2.88;;
68196;SDS011;55019;49.382;11.358;2023-03-12T05:38:27;6.63;;;3.05;;
68196;SDS011;55019;49.382;11.358;2023-03-12T05:40:53;5.57;;;2.95;;
68196;SDS011;55019;49.382;11.358;2023-03-12T05:43:22;4.50;;;3.55;;
68196;SDS011;55019;49.382;11.358;2023-03-12T05:45:48;4.97;;;3.05;;
68196;SDS011;55019;49.382;11.358;2023-03-12T05:48:14;4.75;;;2.58;;
68196;SDS011;55019;49.382;11.358;2023-03-12T05:50:40;5.85;;;3.05;;
68196;SDS011;55019;49.382;11.358;2023-03-12T05:53:06;4.97;;;2.88;;
68196;SDS011;55019;49.382;11.358;2023-03-12T05:55:35;4.55;;;2.63;;
68196;SDS011;55019;49.382;11.358;2023-03-12T05:58:03;3.67;;;2.80;;
68196;SDS011;55019;49.382;11.358;2023-03-12T06:00:30;4.20;;;3.22;;
68196;SDS011;55019;49.382;11.358;2023-03-12T06:02:58;4.13;;;2.47;;
68196;SDS011;55019;49.382;11.358;2023-03-12T06:05:23;4.13;;;2.55;;
68196;SDS011;55019;49.382;11.358;2023-03-12T06:07:49;4.18;;;2.38;;
68196;SDS011;55019;49.382;11.358;2023-03-12T06:10:15;4.13;;;2.72;;
68196;SDS011;55019;49.382;11.358;2023-03-12T06:12:42;5.85;;;3.05;;
68196;SDS011;55019;49.382;11.358;2023-03-12T06:15:08;5.35;;;3.08;;
68196;SDS011;55019;49.382;11.358;2023-03-12T06:17:34;6.40;;;3.25;;
68196;SDS011;55019;49.382;11.358;2023-03-12T06:20:00;4.90;;;3.20;;
68196;SDS011;55019;49.382;11.358;2023-03-12T06:22:26;7.10;;;3.20;;
68196;SDS011;55019;49.382;11.358;2023-03-12T06:24:53;4.85;;;2.67;;
68196;SDS011;55019;49.382;11.358;2023-03-12T06:27:19;4.85;;;2.53;;
68196;SDS011;55019;49.382;11.358;2023-03-12T06:29:45;3.75;;;2.70;;
68196;SDS011;55019;49.382;11.358;2023-03-12T06:32:11;6.35;;;3.15;;
68196;SDS011;55019;49.382;11.358;2023-03-12T06:34:38;5.70;;;3.00;;
68196;SDS011;55019;49.382;11.358;2023-03-12T06:37:03;5.88;;;3.00;;
68196;SDS011;55019;49.382;11.358;2023-03-12T06:39:29;4.75;;;3.08;;
68196;SDS011;55019;49.382;11.358;2023-03-12T06:41:55;5.07;;;3.17;;
68196;SDS011;55019;49.382;11.358;2023-03-12T06:44:21;6.38;;;2.25;;
68196;SDS011;55019;49.382;11.358;2023-03-12T06:46:47;5.53;;;2.83;;
68196;SDS011;55019;49.382;11.358;2023-03-12T06:49:13;3.33;;;2.45;;
68196;SDS011;55019;49.382;11.358;2023-03-12T06:51:39;3.25;;;2.10;;
68196;SDS011;55019;49.382;11.358;2023-03-12T06:54:05;3.85;;;2.40;;
68196;SDS011;55019;49.382;11.358;2023-03-12T06:56:31;5.25;;;2.72;;
68196;SDS011;55019;49.382;11.358;2023-03-12T06:58:57;3.97;;;2.50;;
68196;SDS011;55019;49.382;11.358;2023-03-12T07:01:23;4.47;;;2.85;;
68196;SDS011;55019;49.382;11.358;2023-03-12T07:03:49;4.78;;;2.88;;
68196;SDS011;55019;49.382;11.358;2023-03-12T07:06:16;7.95;;;3.33;;
68196;SDS011;55019;49.382;11.358;2023-03-12T07:08:44;5.32;;;2.95;;
68196;SDS011;55019;49.382;11.358;2023-03-12T07:11:10;6.97;;;2.65;;
68196;SDS011;55019;49.382;11.358;2023-03-12T07:13:37;6.93;;;2.63;;
68196;SDS011;55019;49.382;11.358;2023-03-12T07:16:03;3.55;;;2.35;;
68196;SDS011;55019;49.382;11.358;2023-03-12T07:18:30;4.22;;;2.45;;
68196;SDS011;55019;49.382;11.358;2023-03-12T07:20:55;4.85;;;2.90;;
68196;SDS011;55019;49.382;11.358;2023-03-12T07:23:21;3.42;;;2.30;;
68196;SDS011;55019;49.382;11.358;2023-03-12T07:25:47;4.07;;;2.53;;
68196;SDS011;55019;49.382;11.358;2023-03-12T07:28:14;4.25;;;2.58;;
68196;SDS011;55019;49.382;11.358;2023-03-12T07:30:40;4.68;;;2.53;;
68196;SDS011;55019;49.382;11.358;2023-03-12T07:33:07;5.30;;;2.85;;
68196;SDS011;55019;49.382;11.358;2023-03-12T07:35:35;4.28;;;2.47;;
68196;SDS011;55019;49.382;11.358;2023-03-12T07:38:03;3.58;;;2.03;;
68196;SDS011;55019;49.382;11.358;2023-03-12T07:40:29;4.22;;;2.72;;
68196;SDS011;55019;49.382;11.358;2023-03-12T07:42:55;7.22;;;2.72;;
68196;SDS011;55019;49.382;11.358;2023-03-12T07:45:22;3.58;;;2.22;;
68196;SDS011;55019;49.382;11.358;2023-03-12T07:47:49;3.28;;;2.90;;
68196;SDS011;55019;49.382;11.358;2023-03-12T07:50:15;3.00;;;2.20;;
68196;SDS011;55019;49.382;11.358;2023-03-12T07:52:42;3.40;;;2.42;;
68196;SDS011;55019;49.382;11.358;2023-03-12T07:55:08;4.88;;;2.88;;
68196;SDS011;55019;49.382;11.358;2023-03-12T07:57:35;4.95;;;2.67;;
68196;SDS011;55019;49.382;11.358;2023-03-12T08:00:01;5.75;;;2.45;;
68196;SDS011;55019;49.382;11.358;2023-03-12T08:02:37;3.65;;;2.30;;
68196;SDS011;55019;49.382;11.358;2023-03-12T08:05:03;5.28;;;3.25;;
68196;SDS011;55019;49.382;11.358;2023-03-12T08:07:29;3.30;;;2.05;;
68196;SDS011;55019;49.382;11.358;2023-03-12T08:09:57;3.80;;;2.05;;
68196;SDS011;55019;49.382;11.358;2023-03-12T08:12:23;5.35;;;1.85;;
68196;SDS011;55019;49.382;11.358;2023-03-12T08:14:49;2.53;;;2.00;;
68196;SDS011;55019;49.382;11.358;2023-03-12T08:17:14;3.95;;;2.40;;
68196;SDS011;55019;49.382;11.358;2023-03-12T08:19:40;4.25;;;2.65;;
68196;SDS011;55019;49.382;11.358;2023-03-12T08:22:06;3.58;;;2.00;;
68196;SDS011;55019;49.382;11.358;2023-03-12T08:24:32;7.40;;;2.80;;
68196;SDS011;55019;49.382;11.358;2023-03-12T08:26:59;2.60;;;1.95;;
68196;SDS011;55019;49.382;11.358;2023-03-12T08:29:24;1.67;;;1.50;;
68196;SDS011;55019;49.382;11.358;2023-03-12T08:31:50;4.32;;;1.70;;
68196;SDS011;55019;49.382;11.358;2023-03-12T08:34:16;1.90;;;1.70;;
68196;SDS011;55019;49.382;11.358;2023-03-12T08:36:42;3.03;;;1.67;;
68196;SDS011;55019;49.382;11.358;2023-03-12T08:39:07;3.88;;;2.05;;
68196;SDS011;55019;49.382;11.358;2023-03-12T08:41:33;2.58;;;1.40;;
68196;SDS011;55019;49.382;11.358;2023-03-12T08:43:59;1.73;;;1.50;;
68196;SDS011;55019;49.382;11.358;2023-03-12T08:46:25;2.88;;;1.73;;
68196;SDS011;55019;49.382;11.358;2023-03-12T08:48:50;2.53;;;2.00;;
68196;SDS011;55019;49.382;11.358;2023-03-12T08:51:16;3.05;;;1.80;;
68196;SDS011;55019;49.382;11.358;2023-03-12T08:53:42;2.00;;;1.67;;
68196;SDS011;55019;49.382;11.358;2023-03-12T08:56:07;3.22;;;1.98;;
68196;SDS011;55019;49.382;11.358;2023-03-12T08:58:33;2.42;;;1.52;;
68196;SDS011;55019;49.382;11.358;2023-03-12T09:00:59;1.40;;;1.25;;
68196;SDS011;55019;49.382;11.358;2023-03-12T09:03:25;2.53;;;2.00;;
68196;SDS011;55019;49.382;11.358;2023-03-12T09:06:00;3.65;;;1.60;;
68196;SDS011;55019;49.382;11.358;2023-03-12T09:08:27;2.80;;;1.75;;
68196;SDS011;55019;49.382;11.358;2023-03-12T09:10:53;2.45;;;1.70;;
68196;SDS011;55019;49.382;11.358;2023-03-12T09:13:18;2.40;;;1.65;;
68196;SDS011;55019;49.382;11.358;2023-03-12T09:15:44;2.88;;;1.40;;
68196;SDS011;55019;49.382;11.358;2023-03-12T09:18:10;2.95;;;1.50;;
68196;SDS011;55019;49.382;11.358;2023-03-12T09:20:35;2.38;;;1.50;;
68196;SDS011;55019;49.382;11.358;2023-03-12T09:23:01;2.17;;;1.60;;
68196;SDS011;55019;49.382;11.358;2023-03-12T09:25:27;2.45;;;1.63;;
68196;SDS011;55019;49.382;11.358;2023-03-12T09:27:53;4.35;;;2.10;;
68196;SDS011;55019;49.382;11.358;2023-03-12T09:30:19;4.65;;;1.80;;
68196;SDS011;55019;49.382;11.358;2023-03-12T09:32:45;2.55;;;1.50;;
68196;SDS011;55019;49.382;11.358;2023-03-12T09:35:12;1.52;;;1.42;;
68196;SDS011;55019;49.382;11.358;2023-03-12T09:37:39;1.73;;;1.30;;
68196;SDS011;55019;49.382;11.358;2023-03-12T09:40:05;2.95;;;1.55;;
68196;SDS011;55019;49.382;11.358;2023-03-12T09:45:22;2.63;;;1.63;;
68196;SDS011;55019;49.382;11.358;2023-03-12T09:47:51;2.92;;;1.20;;
68196;SDS011;55019;49.382;11.358;2023-03-12T09:50:26;5.75;;;1.63;;
68196;SDS011;55019;49.382;11.358;2023-03-12T09:52:58;3.80;;;1.40;;
68196;SDS011;55019;49.382;11.358;2023-03-12T09:55:30;2.30;;;1.40;;
68196;SDS011;55019;49.382;11.358;2023-03-12T09:58:01;2.17;;;1.45;;
68196;SDS011;55019;49.382;11.358;2023-03-12T10:00:31;1.73;;;1.35;;
68196;SDS011;55019;49.382;11.358;2023-03-12T10:10:53;2.28;;;1.67;;
68196;SDS011;55019;49.382;11.358;2023-03-12T10:19:26;1.45;;;1.20;;
68196;SDS011;55019;49.382;11.358;2023-03-12T10:22:15;2.13;;;1.48;;
68196;SDS011;55019;49.382;11.358;2023-03-12T10:25:09;3.55;;;1.30;;
68196;SDS011;55019;49.382;11.358;2023-03-12T10:27:42;1.70;;;1.20;;
68196;SDS011;55019;49.382;11.358;2023-03-12T10:30:13;3.45;;;1.27;;
68196;SDS011;55019;49.382;11.358;2023-03-12T10:32:44;1.98;;;1.48;;
68196;SDS011;55019;49.382;11.358;2023-03-12T10:35:18;2.78;;;1.38;;
68196;SDS011;55019;49.382;11.358;2023-03-12T10:37:53;2.47;;;1.30;;
68196;SDS011;55019;49.382;11.358;2023-03-12T10:40:23;2.95;;;1.50;;
68196;SDS011;55019;49.382;11.358;2023-03-12T10:42:53;1.92;;;1.15;;
68196;SDS011;55019;49.382;11.358;2023-03-12T10:48:16;1.45;;;1.30;;
68196;SDS011;55019;49.382;11.358;2023-03-12T10:50:44;2.15;;;1.50;;
68196;SDS011;55019;49.382;11.358;2023-03-12T10:53:32;2.35;;;1.35;;
68196;SDS011;55019;49.382;11.358;2023-03-12T10:56:09;2.65;;;1.88;;
68196;SDS011;55019;49.382;11.358;2023-03-12T10:58:41;2.63;;;1.60;;
68196;SDS011;55019;49.382;11.358;2023-03-12T11:01:17;2.58;;;1.50;;
68196;SDS011;55019;49.382;11.358;2023-03-12T11:03:46;2.65;;;1.65;;
68196;SDS011;55019;49.382;11.358;2023-03-12T11:11:39;2.05;;;1.80;;
68196;SDS011;55019;49.382;11.358;2023-03-12T11:16:45;3.78;;;1.80;;
68196;SDS011;55019;49.382;11.358;2023-03-12T11:19:12;4.28;;;1.67;;
68196;SDS011;55019;49.382;11.358;2023-03-12T11:21:39;5.78;;;1.80;;
68196;SDS011;55019;49.382;11.358;2023-03-12T11:27:50;3.35;;;2.17;;
68196;SDS011;55019;49.382;11.358;2023-03-12T11:30:22;5.75;;;2.63;;
68196;SDS011;55019;49.382;11.358;2023-03-12T11:32:54;3.63;;;2.42;;
68196;SDS011;55019;49.382;11.358;2023-03-12T11:38:31;3.67;;;2.67;;
68196;SDS011;55019;49.382;11.358;2023-03-12T11:46:54;4.88;;;3.20;;
68196;SDS011;55019;49.382;11.358;2023-03-12T11:52:34;7.43;;;3.47;;
68196;SDS011;55019;49.382;11.358;2023-03-12T12:12:24;7.20;;;4.10;;
68196;SDS011;55019;49.382;11.358;2023-03-12T12:25:19;6.85;;;3.80;;
68196;SDS011;55019;49.382;11.358;2023-03-12T12:33:12;6.68;;;4.22;;
68196;SDS011;55019;49.382;11.358;2023-03-12T12:35:57;6.93;;;4.10;;
68196;SDS011;55019;49.382;11.358;2023-03-12T12:38:25;8.27;;;4.43;;
68196;SDS011;55019;49.382;11.358;2023-03-12T12:41:36;10.45;;;5.13;;
68196;SDS011;55019;49.382;11.358;2023-03-12T12:44:16;10.10;;;5.55;;
68196;SDS011;55019;49.382;11.358;2023-03-12T12:46:52;8.25;;;5.22;;
68196;SDS011;55019;49.382;11.358;2023-03-12T12:51:59;10.38;;;4.28;;
68196;SDS011;55019;49.382;11.358;2023-03-12T12:57:02;8.40;;;4.60;;
68196;SDS011;55019;49.382;11.358;2023-03-12T13:02:22;8.75;;;4.65;;
68196;SDS011;55019;49.382;11.358;2023-03-12T13:04:53;6.57;;;4.80;;
68196;SDS011;55019;49.382;11.358;2023-03-12T13:09:47;7.82;;;5.40;;
68196;SDS011;55019;49.382;11.358;2023-03-12T13:12:24;7.47;;;5.03;;
68196;SDS011;55019;49.382;11.358;2023-03-12T13:14:57;9.75;;;4.97;;
68196;SDS011;55019;49.382;11.358;2023-03-12T13:17:28;9.13;;;5.07;;
68196;SDS011;55019;49.382;11.358;2023-03-12T13:28:25;6.95;;;4.65;;
68196;SDS011;55019;49.382;11.358;2023-03-12T13:33:40;8.77;;;4.90;;
68196;SDS011;55019;49.382;11.358;2023-03-12T13:36:18;7.97;;;4.47;;
68196;SDS011;55019;49.382;11.358;2023-03-12T13:38:59;7.63;;;5.05;;
68196;SDS011;55019;49.382;11.358;2023-03-12T13:49:40;8.18;;;5.15;;
68196;SDS011;55019;49.382;11.358;2023-03-12T13:54:42;8.52;;;5.18;;
68196;SDS011;55019;49.382;11.358;2023-03-12T13:57:11;7.95;;;5.25;;
68196;SDS011;55019;49.382;11.358;2023-03-12T14:00:24;10.32;;;6.05;;
68196;SDS011;55019;49.382;11.358;2023-03-12T14:03:13;10.68;;;5.50;;
68196;SDS011;55019;49.382;11.358;2023-03-12T14:11:52;8.60;;;5.15;;
68196;SDS011;55019;49.382;11.358;2023-03-12T14:14:23;8.63;;;5.03;;
68196;SDS011;55019;49.382;11.358;2023-03-12T14:17:22;8.85;;;5.03;;
68196;SDS011;55019;49.382;11.358;2023-03-12T14:22:37;8.20;;;4.50;;
68196;SDS011;55019;49.382;11.358;2023-03-12T14:25:13;7.30;;;4.80;;
68196;SDS011;55019;49.382;11.358;2023-03-12T14:27:43;7.43;;;4.68;;
68196;SDS011;55019;49.382;11.358;2023-03-12T14:30:21;7.05;;;4.60;;
68196;SDS011;55019;49.382;11.358;2023-03-12T14:32:51;10.10;;;5.85;;
68196;SDS011;55019;49.382;11.358;2023-03-12T14:40:56;8.52;;;5.60;;
68196;SDS011;55019;49.382;11.358;2023-03-12T14:43:45;9.35;;;4.65;;
68196;SDS011;55019;49.382;11.358;2023-03-12T14:46:16;10.70;;;6.38;;
68196;SDS011;55019;49.382;11.358;2023-03-12T14:48:46;9.35;;;5.13;;
68196;SDS011;55019;49.382;11.358;2023-03-12T14:51:17;9.98;;;5.85;;
68196;SDS011;55019;49.382;11.358;2023-03-12T14:53:46;10.52;;;4.72;;
68196;SDS011;55019;49.382;11.358;2023-03-12T14:56:13;9.00;;;5.22;;
68196;SDS011;55019;49.382;11.358;2023-03-12T14:58:52;7.82;;;4.18;;
68196;SDS011;55019;49.382;11.358;2023-03-12T15:01:28;7.50;;;4.32;;
68196;SDS011;55019;49.382;11.358;2023-03-12T15:03:57;7.68;;;5.00;;
68196;SDS011;55019;49.382;11.358;2023-03-12T15:09:07;6.63;;;4.10;;
68196;SDS011;55019;49.382;11.358;2023-03-12T15:11:43;6.53;;;4.57;;
68196;SDS011;55019;49.382;11.358;2023-03-12T15:14:14;6.40;;;4.82;;
68196;SDS011;55019;49.382;11.358;2023-03-12T15:16:41;7.65;;;4.63;;
68196;SDS011;55019;49.382;11.358;2023-03-12T15:19:11;7.03;;;4.63;;
68196;SDS011;55019;49.382;11.358;2023-03-12T15:21:38;6.28;;;4.30;;
68196;SDS011;55019;49.382;11.358;2023-03-12T15:24:05;6.45;;;3.83;;
68196;SDS011;55019;49.382;11.358;2023-03-12T15:26:31;7.57;;;4.63;;
68196;SDS011;55019;49.382;11.358;2023-03-12T15:31:47;7.00;;;4.50;;
68196;SDS011;55019;49.382;11.358;2023-03-12T15:34:25;5.70;;;3.85;;
68196;SDS011;55019;49.382;11.358;2023-03-12T15:37:18;6.40;;;3.85;;
68196;SDS011;55019;49.382;11.358;2023-03-12T15:39:48;5.30;;;3.58;;
68196;SDS011;55019;49.382;11.358;2023-03-12T15:42:21;5.78;;;3.67;;
68196;SDS011;55019;49.382;11.358;2023-03-12T15:44:52;5.55;;;3.33;;
68196;SDS011;55019;49.382;11.358;2023-03-12T15:47:25;5.55;;;4.13;;
68196;SDS011;55019;49.382;11.358;2023-03-12T15:49:54;6.35;;;3.70;;
68196;SDS011;55019;49.382;11.358;2023-03-12T15:52:26;5.85;;;4.03;;
68196;SDS011;55019;49.382;11.358;2023-03-12T15:57:36;6.03;;;4.05;;
68196;SDS011;55019;49.382;11.358;2023-03-12T16:00:19;5.80;;;4.00;;
68196;SDS011;55019;49.382;11.358;2023-03-12T16:02:55;4.85;;;3.17;;
68196;SDS011;55019;49.382;11.358;2023-03-12T16:05:30;5.47;;;3.85;;
68196;SDS011;55019;49.382;11.358;2023-03-12T16:08:09;6.55;;;4.03;;
68196;SDS011;55019;49.382;11.358;2023-03-12T16:10:40;5.38;;;3.28;;
68196;SDS011;55019;49.382;11.358;2023-03-12T16:13:06;5.03;;;3.30;;
68196;SDS011;55019;49.382;11.358;2023-03-12T16:15:35;6.32;;;3.42;;
68196;SDS011;55019;49.382;11.358;2023-03-12T16:18:02;5.40;;;3.20;;
68196;SDS011;55019;49.382;11.358;2023-03-12T16:20:28;4.15;;;3.10;;
68196;SDS011;55019;49.382;11.358;2023-03-12T16:22:54;6.18;;;3.22;;
68196;SDS011;55019;49.382;11.358;2023-03-12T16:25:20;4.25;;;3.13;;
68196;SDS011;55019;49.382;11.358;2023-03-12T16:27:51;6.10;;;3.38;;
68196;SDS011;55019;49.382;11.358;2023-03-12T16:30:22;5.25;;;3.78;;
68196;SDS011;55019;49.382;11.358;2023-03-12T16:32:51;5.43;;;3.28;;
68196;SDS011;55019;49.382;11.358;2023-03-12T16:35:17;4.07;;;3.25;;
68196;SDS011;55019;49.382;11.358;2023-03-12T16:37:44;5.15;;;3.47;;
68196;SDS011;55019;49.382;11.358;2023-03-12T16:40:11;4.93;;;3.53;;
68196;SDS011;55019;49.382;11.358;2023-03-12T16:42:39;4.30;;;3.10;;
68196;SDS011;55019;49.382;11.358;2023-03-12T16:45:07;6.22;;;3.58;;
68196;SDS011;55019;49.382;11.358;2023-03-12T16:47:36;3.97;;;3.15;;
68196;SDS011;55019;49.382;11.358;2023-03-12T16:50:02;4.68;;;3.13;;
68196;SDS011;55019;49.382;11.358;2023-03-12T16:52:33;6.07;;;3.67;;
68196;SDS011;55019;49.382;11.358;2023-03-12T16:55:00;5.03;;;2.95;;
68196;SDS011;55019;49.382;11.358;2023-03-12T16:57:31;5.25;;;3.20;;
68196;SDS011;55019;49.382;11.358;2023-03-12T16:59:58;5.32;;;2.85;;
68196;SDS011;55019;49.382;11.358;2023-03-12T17:02:25;3.28;;;2.97;;
68196;SDS011;55019;49.382;11.358;2023-03-12T17:04:52;5.38;;;3.00;;
68196;SDS011;55019;49.382;11.358;2023-03-12T17:07:18;3.50;;;2.95;;
68196;SDS011;55019;49.382;11.358;2023-03-12T17:09:44;3.80;;;2.40;;
68196;SDS011;55019;49.382;11.358;2023-03-12T17:12:17;4.18;;;3.20;;
68196;SDS011;55019;49.382;11.358;2023-03-12T17:14:49;4.32;;;3.03;;